sensor_id;sensor_type;location;lat;lon;timestamp;temperature;humidity
44647;DHT22;56315;-33.902;151.160;2022-07-29T00:01:55;22.70;78.70
44647;DHT22;56315;-33.902;151.160;2022-07-29T00:04:22;22.90;79.20
44647;DHT22;56315;-33.902;151.160;2022-07-29T00:06:50;22.60;77.40
44647;DHT22;56315;-33.902;151.160;2022-07-29T00:09:17;22.80;76.00
44647;DHT22;56315;-33.902;151.160;2022-07-29T00:11:45;22.90;75.60
44647;DHT22;56315;-33.902;151.160;2022-07-29T00:14:12;23.10;76.20
44647;DHT22;56315;-33.902;151.160;2022-07-29T00:16:39;23.60;74.00
44647;DHT22;56315;-33.902;151.160;2022-07-29T00:19:07;23.80;71.90
44647;DHT22;56315;-33.902;151.160;2022-07-29T00:21:34;23.70;70.00
44647;DHT22;56315;-33.902;151.160;2022-07-29T00:24:01;23.00;72.20
44647;DHT22;56315;-33.902;151.160;2022-07-29T00:26:29;23.00;73.70
44647;DHT22;56315;-33.902;151.160;2022-07-29T00:29:02;22.90;73.70
44647;DHT22;56315;-33.902;151.160;2022-07-29T00:31:30;23.00;72.40
44647;DHT22;56315;-33.902;151.160;2022-07-29T00:33:58;23.40;72.00
44647;DHT22;56315;-33.902;151.160;2022-07-29T00:36:25;23.40;70.40
44647;DHT22;56315;-33.902;151.160;2022-07-29T00:38:53;23.30;71.40
44647;DHT22;56315;-33.902;151.160;2022-07-29T00:41:20;23.50;72.20
44647;DHT22;56315;-33.902;151.160;2022-07-29T00:43:48;23.60;70.80
44647;DHT22;56315;-33.902;151.160;2022-07-29T00:46:15;23.90;68.20
44647;DHT22;56315;-33.902;151.160;2022-07-29T00:48:42;23.70;68.90
44647;DHT22;56315;-33.902;151.160;2022-07-29T00:51:09;23.60;67.00
44647;DHT22;56315;-33.902;151.160;2022-07-29T00:53:37;23.20;68.40
44647;DHT22;56315;-33.902;151.160;2022-07-29T00:56:05;23.10;68.30
44647;DHT22;56315;-33.902;151.160;2022-07-29T00:58:32;23.20;67.70
44647;DHT22;56315;-33.902;151.160;2022-07-29T01:00:59;23.40;66.60
44647;DHT22;56315;-33.902;151.160;2022-07-29T01:03:27;24.10;67.20
44647;DHT22;56315;-33.902;151.160;2022-07-29T01:05:54;24.30;65.90
44647;DHT22;56315;-33.902;151.160;2022-07-29T01:08:23;24.50;64.90
44647;DHT22;56315;-33.902;151.160;2022-07-29T01:10:51;24.30;64.80
44647;DHT22;56315;-33.902;151.160;2022-07-29T01:13:19;24.70;66.00
44647;DHT22;56315;-33.902;151.160;2022-07-29T01:15:51;25.00;64.60
44647;DHT22;56315;-33.902;151.160;2022-07-29T01:18:42;25.20;62.60
44647;DHT22;56315;-33.902;151.160;2022-07-29T01:30:07;25.20;61.00
44647;DHT22;56315;-33.902;151.160;2022-07-29T01:32:37;25.30;63.00
44647;DHT22;56315;-33.902;151.160;2022-07-29T01:35:24;25.20;60.60
44647;DHT22;56315;-33.902;151.160;2022-07-29T01:38:22;25.10;60.70
44647;DHT22;56315;-33.902;151.160;2022-07-29T01:40:58;24.50;61.70
44647;DHT22;56315;-33.902;151.160;2022-07-29T01:43:56;24.20;62.30
44647;DHT22;56315;-33.902;151.160;2022-07-29T01:46:33;24.60;59.40
44647;DHT22;56315;-33.902;151.160;2022-07-29T01:49:39;24.50;58.10
44647;DHT22;56315;-33.902;151.160;2022-07-29T01:52:20;24.10;60.00
44647;DHT22;56315;-33.902;151.160;2022-07-29T01:54:57;24.20;56.30
44647;DHT22;56315;-33.902;151.160;2022-07-29T01:57:30;24.30;55.30
44647;DHT22;56315;-33.902;151.160;2022-07-29T02:00:00;24.50;55.10
44647;DHT22;56315;-33.902;151.160;2022-07-29T02:02:29;24.10;56.20
44647;DHT22;56315;-33.902;151.160;2022-07-29T02:04:57;24.30;55.90
44647;DHT22;56315;-33.902;151.160;2022-07-29T02:07:29;24.60;56.50
44647;DHT22;56315;-33.902;151.160;2022-07-29T02:09:58;24.70;56.10
44647;DHT22;56315;-33.902;151.160;2022-07-29T02:12:28;24.90;56.80
44647;DHT22;56315;-33.902;151.160;2022-07-29T02:14:59;25.20;54.70
44647;DHT22;56315;-33.902;151.160;2022-07-29T02:17:43;24.60;54.10
44647;DHT22;56315;-33.902;151.160;2022-07-29T02:20:11;24.00;55.90
44647;DHT22;56315;-33.902;151.160;2022-07-29T02:22:40;24.00;57.30
44647;DHT22;56315;-33.902;151.160;2022-07-29T02:25:09;24.30;57.40
44647;DHT22;56315;-33.902;151.160;2022-07-29T02:27:38;24.40;55.20
44647;DHT22;56315;-33.902;151.160;2022-07-29T02:30:08;24.50;56.10
44647;DHT22;56315;-33.902;151.160;2022-07-29T02:32:38;24.90;56.40
44647;DHT22;56315;-33.902;151.160;2022-07-29T02:35:08;25.40;54.50
44647;DHT22;56315;-33.902;151.160;2022-07-29T02:37:37;25.60;53.70
44647;DHT22;56315;-33.902;151.160;2022-07-29T02:40:08;25.70;53.00
44647;DHT22;56315;-33.902;151.160;2022-07-29T02:42:37;25.30;54.00
44647;DHT22;56315;-33.902;151.160;2022-07-29T02:45:06;25.20;53.40
44647;DHT22;56315;-33.902;151.160;2022-07-29T02:47:45;24.90;51.80
44647;DHT22;56315;-33.902;151.160;2022-07-29T02:50:32;24.80;52.30
44647;DHT22;56315;-33.902;151.160;2022-07-29T02:53:26;24.20;52.60
44647;DHT22;56315;-33.902;151.160;2022-07-29T02:56:04;24.20;51.60
44647;DHT22;56315;-33.902;151.160;2022-07-29T02:58:38;23.90;52.40
44647;DHT22;56315;-33.902;151.160;2022-07-29T03:01:15;24.00;52.80
44647;DHT22;56315;-33.902;151.160;2022-07-29T03:03:47;24.20;52.00
44647;DHT22;56315;-33.902;151.160;2022-07-29T03:06:17;23.90;52.20
44647;DHT22;56315;-33.902;151.160;2022-07-29T03:08:45;23.90;51.90
44647;DHT22;56315;-33.902;151.160;2022-07-29T03:11:13;23.80;52.60
44647;DHT22;56315;-33.902;151.160;2022-07-29T03:13:42;23.80;51.70
44647;DHT22;56315;-33.902;151.160;2022-07-29T03:16:10;24.20;52.70
44647;DHT22;56315;-33.902;151.160;2022-07-29T03:18:39;24.40;51.20
44647;DHT22;56315;-33.902;151.160;2022-07-29T03:21:08;24.20;51.90
44647;DHT22;56315;-33.902;151.160;2022-07-29T03:23:36;23.70;54.30
44647;DHT22;56315;-33.902;151.160;2022-07-29T03:26:03;23.60;54.50
44647;DHT22;56315;-33.902;151.160;2022-07-29T03:28:31;23.20;53.70
44647;DHT22;56315;-33.902;151.160;2022-07-29T03:30:58;22.90;53.30
44647;DHT22;56315;-33.902;151.160;2022-07-29T03:33:25;22.40;53.50
44647;DHT22;56315;-33.902;151.160;2022-07-29T03:35:53;22.20;54.90
44647;DHT22;56315;-33.902;151.160;2022-07-29T03:38:21;21.90;54.80
44647;DHT22;56315;-33.902;151.160;2022-07-29T03:40:54;21.40;54.40
44647;DHT22;56315;-33.902;151.160;2022-07-29T03:43:24;20.70;55.90
44647;DHT22;56315;-33.902;151.160;2022-07-29T03:45:55;19.90;58.20
44647;DHT22;56315;-33.902;151.160;2022-07-29T03:48:24;19.40;60.10
44647;DHT22;56315;-33.902;151.160;2022-07-29T03:50:53;19.10;60.10
44647;DHT22;56315;-33.902;151.160;2022-07-29T03:53:21;18.80;61.80
44647;DHT22;56315;-33.902;151.160;2022-07-29T03:55:52;18.70;62.40
44647;DHT22;56315;-33.902;151.160;2022-07-29T03:58:21;18.30;61.50
44647;DHT22;56315;-33.902;151.160;2022-07-29T04:00:49;18.00;63.00
44647;DHT22;56315;-33.902;151.160;2022-07-29T04:03:17;18.00;64.90
44647;DHT22;56315;-33.902;151.160;2022-07-29T04:05:44;17.70;64.60
44647;DHT22;56315;-33.902;151.160;2022-07-29T04:08:11;17.60;66.00
44647;DHT22;56315;-33.902;151.160;2022-07-29T04:10:39;17.60;66.00
44647;DHT22;56315;-33.902;151.160;2022-07-29T04:13:06;17.60;66.70
44647;DHT22;56315;-33.902;151.160;2022-07-29T04:15:33;17.50;66.70
44647;DHT22;56315;-33.902;151.160;2022-07-29T04:18:01;17.40;65.60
44647;DHT22;56315;-33.902;151.160;2022-07-29T04:20:28;17.30;66.20
44647;DHT22;56315;-33.902;151.160;2022-07-29T04:22:56;17.40;66.70
44647;DHT22;56315;-33.902;151.160;2022-07-29T04:25:23;17.30;66.60
44647;DHT22;56315;-33.902;151.160;2022-07-29T04:27:50;17.30;67.60
44647;DHT22;56315;-33.902;151.160;2022-07-29T04:30:27;17.20;66.30
44647;DHT22;56315;-33.902;151.160;2022-07-29T04:32:55;17.10;68.40
44647;DHT22;56315;-33.902;151.160;2022-07-29T04:35:22;17.20;70.10
44647;DHT22;56315;-33.902;151.160;2022-07-29T04:37:50;17.10;68.60
44647;DHT22;56315;-33.902;151.160;2022-07-29T04:40:17;17.00;70.20
44647;DHT22;56315;-33.902;151.160;2022-07-29T04:42:45;17.10;68.70
44647;DHT22;56315;-33.902;151.160;2022-07-29T04:45:12;17.40;68.40
44647;DHT22;56315;-33.902;151.160;2022-07-29T04:47:58;18.00;68.20
44647;DHT22;56315;-33.902;151.160;2022-07-29T04:50:26;18.60;66.40
44647;DHT22;56315;-33.902;151.160;2022-07-29T04:52:53;18.90;65.40
44647;DHT22;56315;-33.902;151.160;2022-07-29T04:55:20;19.10;65.10
44647;DHT22;56315;-33.902;151.160;2022-07-29T04:57:48;18.90;65.60
44647;DHT22;56315;-33.902;151.160;2022-07-29T05:00:15;18.60;66.60
44647;DHT22;56315;-33.902;151.160;2022-07-29T05:02:46;18.70;68.40
44647;DHT22;56315;-33.902;151.160;2022-07-29T05:05:14;18.30;68.90
44647;DHT22;56315;-33.902;151.160;2022-07-29T05:07:41;17.40;69.20
44647;DHT22;56315;-33.902;151.160;2022-07-29T05:10:09;16.90;70.40
44647;DHT22;56315;-33.902;151.160;2022-07-29T05:12:36;16.60;71.50
44647;DHT22;56315;-33.902;151.160;2022-07-29T05:15:04;16.40;72.40
44647;DHT22;56315;-33.902;151.160;2022-07-29T05:17:31;16.20;73.60
44647;DHT22;56315;-33.902;151.160;2022-07-29T05:19:59;16.10;73.30
44647;DHT22;56315;-33.902;151.160;2022-07-29T05:22:26;16.00;73.50
44647;DHT22;56315;-33.902;151.160;2022-07-29T05:24:53;15.80;72.90
44647;DHT22;56315;-33.902;151.160;2022-07-29T05:27:21;15.60;72.30
44647;DHT22;56315;-33.902;151.160;2022-07-29T05:29:48;15.50;72.60
44647;DHT22;56315;-33.902;151.160;2022-07-29T05:32:15;15.40;73.70
44647;DHT22;56315;-33.902;151.160;2022-07-29T05:34:43;15.30;73.20
44647;DHT22;56315;-33.902;151.160;2022-07-29T05:37:10;15.20;75.90
44647;DHT22;56315;-33.902;151.160;2022-07-29T05:39:40;15.10;75.20
44647;DHT22;56315;-33.902;151.160;2022-07-29T05:42:10;15.10;75.80
44647;DHT22;56315;-33.902;151.160;2022-07-29T05:44:39;15.00;76.70
44647;DHT22;56315;-33.902;151.160;2022-07-29T05:47:06;15.00;78.50
44647;DHT22;56315;-33.902;151.160;2022-07-29T05:49:34;14.90;77.70
44647;DHT22;56315;-33.902;151.160;2022-07-29T05:52:01;14.90;76.30
44647;DHT22;56315;-33.902;151.160;2022-07-29T05:54:28;14.80;75.70
44647;DHT22;56315;-33.902;151.160;2022-07-29T05:56:56;14.80;76.20
44647;DHT22;56315;-33.902;151.160;2022-07-29T05:59:23;14.70;77.00
44647;DHT22;56315;-33.902;151.160;2022-07-29T06:01:51;14.70;78.60
44647;DHT22;56315;-33.902;151.160;2022-07-29T06:04:18;14.60;77.90
44647;DHT22;56315;-33.902;151.160;2022-07-29T06:06:46;14.60;79.20
44647;DHT22;56315;-33.902;151.160;2022-07-29T06:09:13;14.60;80.30
44647;DHT22;56315;-33.902;151.160;2022-07-29T06:11:41;14.50;79.50
44647;DHT22;56315;-33.902;151.160;2022-07-29T06:14:08;14.40;81.70
44647;DHT22;56315;-33.902;151.160;2022-07-29T06:16:36;14.30;83.20
44647;DHT22;56315;-33.902;151.160;2022-07-29T06:19:03;14.30;85.10
44647;DHT22;56315;-33.902;151.160;2022-07-29T06:21:31;14.20;85.10
44647;DHT22;56315;-33.902;151.160;2022-07-29T06:23:58;14.10;84.10
44647;DHT22;56315;-33.902;151.160;2022-07-29T06:26:25;14.20;84.50
44647;DHT22;56315;-33.902;151.160;2022-07-29T06:28:53;14.10;84.70
44647;DHT22;56315;-33.902;151.160;2022-07-29T06:31:20;14.10;85.60
44647;DHT22;56315;-33.902;151.160;2022-07-29T06:33:47;14.00;86.00
44647;DHT22;56315;-33.902;151.160;2022-07-29T06:36:15;14.00;86.40
44647;DHT22;56315;-33.902;151.160;2022-07-29T06:38:42;13.90;87.10
44647;DHT22;56315;-33.902;151.160;2022-07-29T06:41:09;13.90;86.90
44647;DHT22;56315;-33.902;151.160;2022-07-29T06:43:40;13.90;87.40
44647;DHT22;56315;-33.902;151.160;2022-07-29T06:46:12;13.80;85.10
44647;DHT22;56315;-33.902;151.160;2022-07-29T06:48:41;13.80;84.40
44647;DHT22;56315;-33.902;151.160;2022-07-29T06:51:09;13.80;85.20
44647;DHT22;56315;-33.902;151.160;2022-07-29T06:53:38;13.80;85.80
44647;DHT22;56315;-33.902;151.160;2022-07-29T06:56:07;13.70;86.00
44647;DHT22;56315;-33.902;151.160;2022-07-29T06:58:40;13.70;85.40
44647;DHT22;56315;-33.902;151.160;2022-07-29T07:01:07;13.70;87.20
44647;DHT22;56315;-33.902;151.160;2022-07-29T07:03:35;13.70;86.80
44647;DHT22;56315;-33.902;151.160;2022-07-29T07:06:02;13.60;87.70
44647;DHT22;56315;-33.902;151.160;2022-07-29T07:08:30;13.60;89.00
44647;DHT22;56315;-33.902;151.160;2022-07-29T07:10:57;13.60;89.30
44647;DHT22;56315;-33.902;151.160;2022-07-29T07:13:25;13.50;90.00
44647;DHT22;56315;-33.902;151.160;2022-07-29T07:15:52;13.40;90.20
44647;DHT22;56315;-33.902;151.160;2022-07-29T07:18:20;13.40;90.50
44647;DHT22;56315;-33.902;151.160;2022-07-29T07:20:47;13.30;90.30
44647;DHT22;56315;-33.902;151.160;2022-07-29T07:23:14;13.30;90.60
44647;DHT22;56315;-33.902;151.160;2022-07-29T07:25:42;13.20;90.70
44647;DHT22;56315;-33.902;151.160;2022-07-29T07:28:09;13.20;90.90
44647;DHT22;56315;-33.902;151.160;2022-07-29T07:30:36;13.10;91.80
44647;DHT22;56315;-33.902;151.160;2022-07-29T07:33:04;13.00;91.70
44647;DHT22;56315;-33.902;151.160;2022-07-29T07:35:31;13.00;91.70
44647;DHT22;56315;-33.902;151.160;2022-07-29T07:37:59;13.00;92.20
44647;DHT22;56315;-33.902;151.160;2022-07-29T07:40:27;13.00;92.30
44647;DHT22;56315;-33.902;151.160;2022-07-29T07:42:54;13.00;92.30
44647;DHT22;56315;-33.902;151.160;2022-07-29T07:45:22;13.00;92.50
44647;DHT22;56315;-33.902;151.160;2022-07-29T07:47:50;12.90;92.40
44647;DHT22;56315;-33.902;151.160;2022-07-29T07:50:18;12.90;92.80
44647;DHT22;56315;-33.902;151.160;2022-07-29T07:52:50;12.80;93.00
44647;DHT22;56315;-33.902;151.160;2022-07-29T07:55:19;12.80;93.20
44647;DHT22;56315;-33.902;151.160;2022-07-29T07:57:46;12.80;93.60
44647;DHT22;56315;-33.902;151.160;2022-07-29T08:00:16;12.80;93.90
44647;DHT22;56315;-33.902;151.160;2022-07-29T08:02:45;12.80;94.20
44647;DHT22;56315;-33.902;151.160;2022-07-29T08:05:15;12.70;94.40
44647;DHT22;56315;-33.902;151.160;2022-07-29T08:07:46;12.70;94.90
44647;DHT22;56315;-33.902;151.160;2022-07-29T08:10:15;12.70;95.00
44647;DHT22;56315;-33.902;151.160;2022-07-29T08:13:09;12.60;95.50
44647;DHT22;56315;-33.902;151.160;2022-07-29T08:15:39;12.50;96.20
44647;DHT22;56315;-33.902;151.160;2022-07-29T08:18:12;12.60;95.30
44647;DHT22;56315;-33.902;151.160;2022-07-29T08:20:40;12.60;95.80
44647;DHT22;56315;-33.902;151.160;2022-07-29T08:23:08;12.50;95.90
44647;DHT22;56315;-33.902;151.160;2022-07-29T08:25:39;12.50;96.20
44647;DHT22;56315;-33.902;151.160;2022-07-29T08:28:06;12.50;96.50
44647;DHT22;56315;-33.902;151.160;2022-07-29T08:30:34;12.50;96.60
44647;DHT22;56315;-33.902;151.160;2022-07-29T08:33:02;12.40;97.00
44647;DHT22;56315;-33.902;151.160;2022-07-29T08:35:29;12.30;97.40
44647;DHT22;56315;-33.902;151.160;2022-07-29T08:37:57;12.30;97.80
44647;DHT22;56315;-33.902;151.160;2022-07-29T08:40:24;12.20;97.80
44647;DHT22;56315;-33.902;151.160;2022-07-29T08:42:52;12.20;98.30
44647;DHT22;56315;-33.902;151.160;2022-07-29T08:45:21;12.10;98.90
44647;DHT22;56315;-33.902;151.160;2022-07-29T08:47:50;12.10;99.30
44647;DHT22;56315;-33.902;151.160;2022-07-29T08:50:17;12.10;99.40
44647;DHT22;56315;-33.902;151.160;2022-07-29T08:52:45;12.10;99.40
44647;DHT22;56315;-33.902;151.160;2022-07-29T08:55:15;12.10;99.70
44647;DHT22;56315;-33.902;151.160;2022-07-29T08:57:44;12.10;99.90
44647;DHT22;56315;-33.902;151.160;2022-07-29T09:00:12;12.00;99.90
44647;DHT22;56315;-33.902;151.160;2022-07-29T09:02:45;12.00;99.90
44647;DHT22;56315;-33.902;151.160;2022-07-29T09:05:15;12.10;99.90
44647;DHT22;56315;-33.902;151.160;2022-07-29T09:07:43;12.10;99.90
44647;DHT22;56315;-33.902;151.160;2022-07-29T09:10:14;12.00;99.90
44647;DHT22;56315;-33.902;151.160;2022-07-29T09:12:41;12.00;99.90
44647;DHT22;56315;-33.902;151.160;2022-07-29T09:15:09;12.00;99.90
44647;DHT22;56315;-33.902;151.160;2022-07-29T09:17:44;11.80;99.90
44647;DHT22;56315;-33.902;151.160;2022-07-29T09:20:17;11.70;99.90
44647;DHT22;56315;-33.902;151.160;2022-07-29T09:22:45;11.70;99.90
44647;DHT22;56315;-33.902;151.160;2022-07-29T09:25:39;11.70;99.90
44647;DHT22;56315;-33.902;151.160;2022-07-29T09:28:12;11.70;99.90
44647;DHT22;56315;-33.902;151.160;2022-07-29T09:30:55;11.60;99.90
44647;DHT22;56315;-33.902;151.160;2022-07-29T09:33:31;11.60;99.90
44647;DHT22;56315;-33.902;151.160;2022-07-29T09:36:04;11.50;99.90
44647;DHT22;56315;-33.902;151.160;2022-07-29T09:38:33;11.50;99.90
44647;DHT22;56315;-33.902;151.160;2022-07-29T09:41:03;11.50;99.90
44647;DHT22;56315;-33.902;151.160;2022-07-29T09:43:32;11.50;99.90
44647;DHT22;56315;-33.902;151.160;2022-07-29T09:46:12;11.60;99.90
44647;DHT22;56315;-33.902;151.160;2022-07-29T09:48:40;11.60;99.90
44647;DHT22;56315;-33.902;151.160;2022-07-29T09:51:18;11.50;99.90
44647;DHT22;56315;-33.902;151.160;2022-07-29T09:53:46;11.50;99.90
44647;DHT22;56315;-33.902;151.160;2022-07-29T09:56:13;11.50;99.90
44647;DHT22;56315;-33.902;151.160;2022-07-29T09:58:40;11.50;99.90
44647;DHT22;56315;-33.902;151.160;2022-07-29T10:01:08;11.50;99.90
44647;DHT22;56315;-33.902;151.160;2022-07-29T10:03:51;11.50;99.90
44647;DHT22;56315;-33.902;151.160;2022-07-29T10:06:19;11.50;99.90
44647;DHT22;56315;-33.902;151.160;2022-07-29T10:08:47;11.50;99.90
44647;DHT22;56315;-33.902;151.160;2022-07-29T10:11:17;11.50;99.90
44647;DHT22;56315;-33.902;151.160;2022-07-29T10:13:47;11.50;99.90
44647;DHT22;56315;-33.902;151.160;2022-07-29T10:16:15;11.50;99.90
44647;DHT22;56315;-33.902;151.160;2022-07-29T10:18:44;11.50;99.90
44647;DHT22;56315;-33.902;151.160;2022-07-29T10:21:13;11.40;99.90
44647;DHT22;56315;-33.902;151.160;2022-07-29T10:23:41;11.40;99.90
44647;DHT22;56315;-33.902;151.160;2022-07-29T10:26:10;11.30;99.90
44647;DHT22;56315;-33.902;151.160;2022-07-29T10:28:38;11.30;99.90
44647;DHT22;56315;-33.902;151.160;2022-07-29T10:31:08;11.20;99.90
44647;DHT22;56315;-33.902;151.160;2022-07-29T10:36:45;11.10;99.90
44647;DHT22;56315;-33.902;151.160;2022-07-29T10:39:35;10.90;99.90
44647;DHT22;56315;-33.902;151.160;2022-07-29T10:42:17;10.80;99.90
44647;DHT22;56315;-33.902;151.160;2022-07-29T10:44:45;10.70;99.90
44647;DHT22;56315;-33.902;151.160;2022-07-29T10:47:23;10.60;99.90
44647;DHT22;56315;-33.902;151.160;2022-07-29T10:50:09;10.50;99.90
44647;DHT22;56315;-33.902;151.160;2022-07-29T10:52:52;10.40;99.90
44647;DHT22;56315;-33.902;151.160;2022-07-29T10:55:46;10.30;99.90
44647;DHT22;56315;-33.902;151.160;2022-07-29T10:58:23;10.20;99.90
44647;DHT22;56315;-33.902;151.160;2022-07-29T11:00:53;10.10;99.90
44647;DHT22;56315;-33.902;151.160;2022-07-29T11:03:46;10.00;99.90
44647;DHT22;56315;-33.902;151.160;2022-07-29T11:06:14;9.90;99.90
44647;DHT22;56315;-33.902;151.160;2022-07-29T11:08:42;9.80;99.90
44647;DHT22;56315;-33.902;151.160;2022-07-29T11:11:30;9.70;99.90
44647;DHT22;56315;-33.902;151.160;2022-07-29T11:13:58;9.70;99.90
44647;DHT22;56315;-33.902;151.160;2022-07-29T11:16:26;9.60;99.90
44647;DHT22;56315;-33.902;151.160;2022-07-29T11:21:43;9.40;99.90
44647;DHT22;56315;-33.902;151.160;2022-07-29T11:24:14;9.30;99.90
44647;DHT22;56315;-33.902;151.160;2022-07-29T11:26:42;9.20;99.90
44647;DHT22;56315;-33.902;151.160;2022-07-29T11:29:22;9.10;99.90
44647;DHT22;56315;-33.902;151.160;2022-07-29T11:31:52;9.10;99.90
44647;DHT22;56315;-33.902;151.160;2022-07-29T11:34:25;9.10;99.90
44647;DHT22;56315;-33.902;151.160;2022-07-29T11:37:14;9.00;99.90
44647;DHT22;56315;-33.902;151.160;2022-07-29T11:42:36;9.00;99.90
44647;DHT22;56315;-33.902;151.160;2022-07-29T11:45:12;8.90;99.90
44647;DHT22;56315;-33.902;151.160;2022-07-29T11:50:26;8.90;99.90
44647;DHT22;56315;-33.902;151.160;2022-07-29T11:52:54;8.80;99.90
44647;DHT22;56315;-33.902;151.160;2022-07-29T11:55:22;8.80;99.90
44647;DHT22;56315;-33.902;151.160;2022-07-29T11:57:56;8.70;99.90
44647;DHT22;56315;-33.902;151.160;2022-07-29T12:00:37;8.70;99.90
44647;DHT22;56315;-33.902;151.160;2022-07-29T12:03:09;8.70;99.90
44647;DHT22;56315;-33.902;151.160;2022-07-29T12:05:44;8.80;99.90
44647;DHT22;56315;-33.902;151.160;2022-07-29T12:10:41;8.90;99.90
44647;DHT22;56315;-33.902;151.160;2022-07-29T12:13:09;9.00;99.90
44647;DHT22;56315;-33.902;151.160;2022-07-29T12:15:38;9.10;99.90
44647;DHT22;56315;-33.902;151.160;2022-07-29T12:18:14;9.20;99.90
44647;DHT22;56315;-33.902;151.160;2022-07-29T12:20:41;9.30;99.90
44647;DHT22;56315;-33.902;151.160;2022-07-29T12:23:09;9.50;99.90
44647;DHT22;56315;-33.902;151.160;2022-07-29T12:25:39;9.50;99.90
44647;DHT22;56315;-33.902;151.160;2022-07-29T12:28:11;9.60;99.90
44647;DHT22;56315;-33.902;151.160;2022-07-29T12:30:51;9.60;99.90
44647;DHT22;56315;-33.902;151.160;2022-07-29T12:33:29;9.90;99.90
44647;DHT22;56315;-33.902;151.160;2022-07-29T12:36:01;10.10;99.90
44647;DHT22;56315;-33.902;151.160;2022-07-29T12:38:29;10.30;99.90
44647;DHT22;56315;-33.902;151.160;2022-07-29T12:40:56;10.70;99.90
44647;DHT22;56315;-33.902;151.160;2022-07-29T12:43:25;10.90;99.90
44647;DHT22;56315;-33.902;151.160;2022-07-29T12:45:55;11.20;99.90
44647;DHT22;56315;-33.902;151.160;2022-07-29T12:48:40;11.30;99.90
44647;DHT22;56315;-33.902;151.160;2022-07-29T12:51:09;11.40;99.90
44647;DHT22;56315;-33.902;151.160;2022-07-29T12:53:38;11.40;99.90
44647;DHT22;56315;-33.902;151.160;2022-07-29T12:56:06;11.30;99.90
44647;DHT22;56315;-33.902;151.160;2022-07-29T12:58:39;11.30;99.90
44647;DHT22;56315;-33.902;151.160;2022-07-29T13:11:45;11.10;99.90
44647;DHT22;56315;-33.902;151.160;2022-07-29T13:14:29;11.00;99.90
44647;DHT22;56315;-33.902;151.160;2022-07-29T13:22:13;10.60;99.90
44647;DHT22;56315;-33.902;151.160;2022-07-29T13:24:54;10.50;99.90
44647;DHT22;56315;-33.902;151.160;2022-07-29T13:27:27;10.30;99.90
44647;DHT22;56315;-33.902;151.160;2022-07-29T13:29:57;10.10;99.90
44647;DHT22;56315;-33.902;151.160;2022-07-29T13:32:26;10.00;99.90
44647;DHT22;56315;-33.902;151.160;2022-07-29T13:34:58;9.90;99.90
44647;DHT22;56315;-33.902;151.160;2022-07-29T13:37:28;9.80;99.90
44647;DHT22;56315;-33.902;151.160;2022-07-29T13:39:56;9.60;99.90
44647;DHT22;56315;-33.902;151.160;2022-07-29T13:42:24;9.40;99.90
44647;DHT22;56315;-33.902;151.160;2022-07-29T13:44:52;9.30;99.90
44647;DHT22;56315;-33.902;151.160;2022-07-29T13:47:20;9.30;99.90
44647;DHT22;56315;-33.902;151.160;2022-07-29T13:49:48;9.20;99.90
44647;DHT22;56315;-33.902;151.160;2022-07-29T13:52:16;9.10;99.90
44647;DHT22;56315;-33.902;151.160;2022-07-29T13:54:43;9.00;99.90
44647;DHT22;56315;-33.902;151.160;2022-07-29T13:57:11;9.10;99.90
44647;DHT22;56315;-33.902;151.160;2022-07-29T13:59:42;9.00;99.90
44647;DHT22;56315;-33.902;151.160;2022-07-29T14:02:11;9.00;99.90
44647;DHT22;56315;-33.902;151.160;2022-07-29T14:04:42;8.90;99.90
44647;DHT22;56315;-33.902;151.160;2022-07-29T14:07:11;8.80;99.90
44647;DHT22;56315;-33.902;151.160;2022-07-29T14:09:38;8.80;99.90
44647;DHT22;56315;-33.902;151.160;2022-07-29T14:12:06;8.70;99.90
44647;DHT22;56315;-33.902;151.160;2022-07-29T14:14:33;8.60;99.90
44647;DHT22;56315;-33.902;151.160;2022-07-29T14:17:03;8.50;99.90
44647;DHT22;56315;-33.902;151.160;2022-07-29T14:19:32;8.40;99.90
44647;DHT22;56315;-33.902;151.160;2022-07-29T14:22:03;8.20;99.90
44647;DHT22;56315;-33.902;151.160;2022-07-29T14:24:31;8.20;99.90
44647;DHT22;56315;-33.902;151.160;2022-07-29T14:26:59;8.10;99.90
44647;DHT22;56315;-33.902;151.160;2022-07-29T14:29:26;8.00;99.90
44647;DHT22;56315;-33.902;151.160;2022-07-29T14:31:54;8.00;99.90
44647;DHT22;56315;-33.902;151.160;2022-07-29T14:34:21;8.00;99.90
44647;DHT22;56315;-33.902;151.160;2022-07-29T14:36:48;8.00;99.90
44647;DHT22;56315;-33.902;151.160;2022-07-29T14:39:16;8.00;99.90
44647;DHT22;56315;-33.902;151.160;2022-07-29T14:41:44;8.00;99.90
44647;DHT22;56315;-33.902;151.160;2022-07-29T14:44:11;8.10;99.90
44647;DHT22;56315;-33.902;151.160;2022-07-29T14:46:38;8.20;99.90
44647;DHT22;56315;-33.902;151.160;2022-07-29T14:49:06;8.30;99.90
44647;DHT22;56315;-33.902;151.160;2022-07-29T14:51:33;8.30;99.90
44647;DHT22;56315;-33.902;151.160;2022-07-29T14:54:00;8.40;99.90
44647;DHT22;56315;-33.902;151.160;2022-07-29T14:56:28;8.40;99.90
44647;DHT22;56315;-33.902;151.160;2022-07-29T14:58:59;8.40;99.90
44647;DHT22;56315;-33.902;151.160;2022-07-29T15:01:27;8.40;99.90
44647;DHT22;56315;-33.902;151.160;2022-07-29T15:03:55;8.50;99.90
44647;DHT22;56315;-33.902;151.160;2022-07-29T15:06:22;8.50;99.90
44647;DHT22;56315;-33.902;151.160;2022-07-29T15:08:50;8.40;99.90
44647;DHT22;56315;-33.902;151.160;2022-07-29T15:11:17;8.40;99.90
44647;DHT22;56315;-33.902;151.160;2022-07-29T15:13:44;8.30;99.90
44647;DHT22;56315;-33.902;151.160;2022-07-29T15:16:12;8.30;99.90
44647;DHT22;56315;-33.902;151.160;2022-07-29T15:18:39;8.20;99.90
44647;DHT22;56315;-33.902;151.160;2022-07-29T15:21:06;8.20;99.90
44647;DHT22;56315;-33.902;151.160;2022-07-29T15:23:34;8.10;99.90
44647;DHT22;56315;-33.902;151.160;2022-07-29T15:26:03;8.10;99.90
44647;DHT22;56315;-33.902;151.160;2022-07-29T15:28:30;8.00;99.90
44647;DHT22;56315;-33.902;151.160;2022-07-29T15:30:58;7.90;99.90
44647;DHT22;56315;-33.902;151.160;2022-07-29T15:33:26;7.80;99.90
44647;DHT22;56315;-33.902;151.160;2022-07-29T15:35:55;7.70;99.90
44647;DHT22;56315;-33.902;151.160;2022-07-29T15:38:22;7.60;99.90
44647;DHT22;56315;-33.902;151.160;2022-07-29T15:40:49;7.50;99.90
44647;DHT22;56315;-33.902;151.160;2022-07-29T15:43:17;7.50;99.90
44647;DHT22;56315;-33.902;151.160;2022-07-29T15:45:45;7.50;99.90
44647;DHT22;56315;-33.902;151.160;2022-07-29T15:48:32;7.50;99.90